createdAt,value
2018-05-19T00:01:45.306Z,19.60
2018-05-19T00:04:13.572Z,14.97
2018-05-19T00:06:41.873Z,17.33
2018-05-19T00:09:10.149Z,17.00
2018-05-19T00:11:38.428Z,16.47
2018-05-19T00:14:06.695Z,19.73
2018-05-19T00:16:34.980Z,20.03
2018-05-19T00:19:03.258Z,18.00
2018-05-19T00:21:31.516Z,15.97
2018-05-19T00:23:59.781Z,20.20
2018-05-19T00:26:28.876Z,17.77
2018-05-19T00:28:57.906Z,18.07
2018-05-19T00:31:26.158Z,20.00
2018-05-19T00:33:54.915Z,18.77
2018-05-19T00:36:23.171Z,19.77
2018-05-19T00:38:51.539Z,22.00
2018-05-19T00:41:19.794Z,17.40
2018-05-19T00:43:48.061Z,21.80
2018-05-19T00:46:17.079Z,19.77
2018-05-19T00:48:45.351Z,20.90
2018-05-19T00:51:13.599Z,21.80
2018-05-19T00:53:42.658Z,19.40
2018-05-19T00:56:10.950Z,18.00
2018-05-19T00:58:39.208Z,18.60
2018-05-19T01:01:07.476Z,19.10
2018-05-19T01:03:35.726Z,21.93
2018-05-19T01:06:04.752Z,16.10
2018-05-19T01:08:33.006Z,17.87
2018-05-19T01:11:02.024Z,18.67
2018-05-19T01:13:30.324Z,21.67
2018-05-19T01:15:58.595Z,18.63
2018-05-19T01:18:26.844Z,18.93
2018-05-19T01:20:55.976Z,20.97
2018-05-19T01:23:24.247Z,17.23
2018-05-19T01:25:52.513Z,16.40
2018-05-19T01:28:20.765Z,16.30
2018-05-19T01:30:49.797Z,17.53
2018-05-19T01:33:18.047Z,18.10
2018-05-19T01:35:47.085Z,17.80
2018-05-19T01:38:15.370Z,20.60
2018-05-19T01:40:43.647Z,20.53
2018-05-19T01:43:11.899Z,17.07
2018-05-19T01:45:40.181Z,16.90
2018-05-19T01:48:08.490Z,20.77
2018-05-19T01:50:36.869Z,21.60
2018-05-19T01:53:05.184Z,18.90
2018-05-19T01:55:33.534Z,23.20
2018-05-19T01:58:01.809Z,19.73
2018-05-19T02:00:30.072Z,17.20
2018-05-19T02:02:58.374Z,19.47
2018-05-19T02:05:26.687Z,27.10
2018-05-19T02:07:54.966Z,17.00
2018-05-19T02:10:24.727Z,18.77
2018-05-19T02:12:53.845Z,17.67
2018-05-19T02:15:22.156Z,20.17
2018-05-19T02:17:50.433Z,18.60
2018-05-19T02:20:18.714Z,18.70
2018-05-19T02:22:46.976Z,21.10
2018-05-19T02:25:15.275Z,18.30
2018-05-19T02:27:43.716Z,21.53
2018-05-19T02:30:11.902Z,19.73
2018-05-19T02:32:40.178Z,25.97
2018-05-19T02:35:08.456Z,19.23
2018-05-19T02:37:36.742Z,22.60
2018-05-19T02:40:04.985Z,19.63
2018-05-19T02:42:33.262Z,22.37
2018-05-19T02:45:02.333Z,23.93
2018-05-19T02:47:30.590Z,19.20
2018-05-19T02:49:58.863Z,23.17
2018-05-19T02:52:27.132Z,21.10
2018-05-19T02:54:55.393Z,27.80
2018-05-19T02:57:23.743Z,21.97
2018-05-19T02:59:52.631Z,22.17
2018-05-19T03:02:20.892Z,20.47
2018-05-19T03:04:49.164Z,23.63
2018-05-19T03:07:17.424Z,19.93
2018-05-19T03:09:45.709Z,23.87
2018-05-19T03:12:13.977Z,16.73
2018-05-19T03:14:42.237Z,20.70
2018-05-19T03:17:10.602Z,19.47
2018-05-19T03:19:38.963Z,22.90
2018-05-19T03:22:07.204Z,21.60
2018-05-19T03:24:35.467Z,18.93
2018-05-19T03:27:03.855Z,24.87
2018-05-19T03:29:32.154Z,21.90
2018-05-19T03:32:00.411Z,20.70
2018-05-19T03:34:28.692Z,20.20
2018-05-19T03:36:57.000Z,20.33
2018-05-19T03:39:25.269Z,19.60
2018-05-19T03:41:53.534Z,23.83
2018-05-19T03:44:21.799Z,21.03
2018-05-19T03:46:50.051Z,23.60
2018-05-19T03:49:19.097Z,22.07
2018-05-19T03:51:47.413Z,21.50
2018-05-19T03:54:15.656Z,19.97
2018-05-19T03:56:43.909Z,24.00
2018-05-19T03:59:24.205Z,23.43
2018-05-19T04:04:51.173Z,24.53
2018-05-19T04:07:19.449Z,23.40
2018-05-19T04:09:47.732Z,22.03
2018-05-19T04:12:16.006Z,22.80
2018-05-19T04:14:44.282Z,18.87
2018-05-19T04:17:12.531Z,17.90
2018-05-19T04:19:40.877Z,20.17
2018-05-19T04:22:09.118Z,21.73
2018-05-19T04:24:37.384Z,19.73
2018-05-19T04:27:05.678Z,24.60
2018-05-19T04:29:33.948Z,24.67
2018-05-19T04:32:02.787Z,18.30
2018-05-19T04:34:33.345Z,18.97
2018-05-19T04:37:02.395Z,21.93
2018-05-19T04:39:30.666Z,18.43
2018-05-19T04:41:58.917Z,21.47
2018-05-19T04:44:27.244Z,25.73
2018-05-19T04:46:56.310Z,22.47
2018-05-19T04:49:24.633Z,23.53
2018-05-19T04:51:52.866Z,21.10
2018-05-19T04:54:21.133Z,17.13
2018-05-19T04:56:49.439Z,20.63
2018-05-19T04:59:17.721Z,23.37
2018-05-19T05:01:45.980Z,18.83
2018-05-19T05:04:14.238Z,22.87
2018-05-19T05:06:43.307Z,23.83
2018-05-19T05:09:11.529Z,22.83
2018-05-19T05:11:39.798Z,22.10
2018-05-19T05:14:08.053Z,22.03
2018-05-19T05:16:36.322Z,27.80
2018-05-19T05:19:04.659Z,23.80
2018-05-19T05:21:32.936Z,25.30
2018-05-19T05:24:01.198Z,21.80
2018-05-19T05:26:29.503Z,25.40
2018-05-19T05:28:57.794Z,27.47
2018-05-19T05:31:26.171Z,26.73
2018-05-19T05:33:54.440Z,29.50
2018-05-19T05:36:22.725Z,28.60
2018-05-19T05:38:50.977Z,25.07
2018-05-19T05:41:20.040Z,24.93
2018-05-19T05:43:49.052Z,29.73
2018-05-19T05:46:18.229Z,24.63
2018-05-19T05:48:46.470Z,25.33
2018-05-19T05:51:14.761Z,22.07
2018-05-19T05:53:43.064Z,26.20
2018-05-19T05:56:11.349Z,24.87
2018-05-19T05:58:39.605Z,23.40
2018-05-19T06:01:07.873Z,21.53
2018-05-19T06:03:36.187Z,22.50
2018-05-19T06:06:04.451Z,24.23
2018-05-19T06:08:32.713Z,25.33
2018-05-19T06:11:00.997Z,23.43
2018-05-19T06:13:29.302Z,26.23
2018-05-19T06:15:57.560Z,28.73
2018-05-19T06:18:25.843Z,25.83
2018-05-19T06:20:54.114Z,29.17
2018-05-19T06:23:22.382Z,18.63
2018-05-19T06:25:50.675Z,24.17
2018-05-19T06:28:18.928Z,21.70
2018-05-19T06:30:47.225Z,25.03
2018-05-19T06:33:15.494Z,26.67
2018-05-19T06:35:43.762Z,24.37
2018-05-19T06:38:12.034Z,23.07
2018-05-19T06:40:40.286Z,27.40
2018-05-19T06:43:09.317Z,26.53
2018-05-19T06:45:37.565Z,31.37
2018-05-19T06:48:06.662Z,22.97
2018-05-19T06:50:35.743Z,28.37
2018-05-19T06:53:04.021Z,22.97
2018-05-19T06:55:32.267Z,24.80
2018-05-19T06:58:00.537Z,17.80
2018-05-19T07:00:28.837Z,24.40
2018-05-19T07:02:57.106Z,20.40
2018-05-19T07:05:25.358Z,29.93
2018-05-19T07:07:54.481Z,22.80
2018-05-19T07:10:22.774Z,26.20
2018-05-19T07:12:51.076Z,23.33
2018-05-19T07:15:19.308Z,26.80
2018-05-19T07:17:47.573Z,22.57
2018-05-19T07:20:15.979Z,21.47
2018-05-19T07:22:44.252Z,20.40
2018-05-19T07:25:12.536Z,21.20
2018-05-19T07:27:40.865Z,18.20
2018-05-19T07:30:09.949Z,22.70
2018-05-19T07:32:38.200Z,20.43
2018-05-19T07:35:06.506Z,24.37
2018-05-19T07:37:34.742Z,20.80
2018-05-19T07:40:03.013Z,18.53
2018-05-19T07:42:38.813Z,18.00
2018-05-19T07:45:09.632Z,18.97
2018-05-19T07:57:29.482Z,16.07
2018-05-19T07:59:57.807Z,28.27
2018-05-19T08:02:26.053Z,21.07
2018-05-19T08:04:54.321Z,15.90
2018-05-19T08:07:22.583Z,20.53
2018-05-19T08:09:50.856Z,19.80
2018-05-19T08:12:19.935Z,21.77
2018-05-19T08:14:48.309Z,15.60
2018-05-19T08:17:16.566Z,22.40
2018-05-19T08:19:44.827Z,20.80
2018-05-19T08:22:13.462Z,20.33
2018-05-19T08:24:42.148Z,20.27
2018-05-19T08:27:10.874Z,19.60
2018-05-19T08:32:08.391Z,21.83
2018-05-19T08:34:36.667Z,18.50
2018-05-19T08:37:04.944Z,21.17
2018-05-19T08:39:33.213Z,22.60
2018-05-19T08:42:01.507Z,22.80
2018-05-19T08:44:29.786Z,23.80
2018-05-19T08:46:58.040Z,22.10
2018-05-19T08:49:26.325Z,21.40
2018-05-19T08:51:54.597Z,22.77
2018-05-19T08:54:22.914Z,21.63
2018-05-19T08:56:51.172Z,19.60
2018-05-19T08:59:19.482Z,20.73
2018-05-19T09:01:47.766Z,22.87
2018-05-19T09:04:16.118Z,18.33
2018-05-19T09:06:44.410Z,16.17
2018-05-19T09:09:12.678Z,21.90
2018-05-19T09:11:40.974Z,25.77
2018-05-19T09:14:09.385Z,21.53
2018-05-19T09:16:37.643Z,16.87
2018-05-19T09:19:06.000Z,22.33
2018-05-19T09:21:34.625Z,18.23
2018-05-19T09:24:03.111Z,15.83
2018-05-19T09:26:32.415Z,21.13
2018-05-19T09:29:01.717Z,14.07
2018-05-19T09:31:31.019Z,15.40
2018-05-19T09:34:00.322Z,18.80
2018-05-19T09:36:30.273Z,17.67
2018-05-19T09:38:58.727Z,21.90
2018-05-19T09:41:28.031Z,13.27
2018-05-19T09:43:56.557Z,15.60
2018-05-19T09:46:26.023Z,17.53
2018-05-19T09:48:54.639Z,12.87
2018-05-19T09:51:24.011Z,17.20
2018-05-19T09:53:52.537Z,15.43
2018-05-19T09:56:21.080Z,11.67
2018-05-19T09:58:49.425Z,14.20
2018-05-19T10:01:18.201Z,15.20
2018-05-19T10:03:46.508Z,14.17
2018-05-19T10:06:14.815Z,12.53
2018-05-19T10:08:43.055Z,12.17
2018-05-19T10:11:11.342Z,14.90
2018-05-19T10:13:39.609Z,14.40
2018-05-19T10:16:08.681Z,14.10
2018-05-19T10:18:37.718Z,13.27
2018-05-19T10:21:06.232Z,13.40
2018-05-19T10:23:35.556Z,13.73
2018-05-19T10:26:03.882Z,13.40
2018-05-19T10:28:32.161Z,13.40
2018-05-19T10:31:00.413Z,11.93
2018-05-19T10:33:28.752Z,13.93
2018-05-19T10:35:56.992Z,15.37
2018-05-19T10:38:25.280Z,13.90
2018-05-19T10:40:53.653Z,15.60
2018-05-19T10:43:21.949Z,16.50
2018-05-19T10:45:50.208Z,15.07
2018-05-19T10:48:18.458Z,14.60
2018-05-19T10:50:47.495Z,11.97
2018-05-19T10:53:15.744Z,12.20
2018-05-19T10:55:44.010Z,13.80
2018-05-19T10:58:13.026Z,13.73
2018-05-19T11:00:41.321Z,15.27
2018-05-19T11:03:09.578Z,15.20
2018-05-19T11:05:38.705Z,13.47
2018-05-19T11:08:06.967Z,13.17
2018-05-19T11:10:35.241Z,13.27
2018-05-19T11:13:03.551Z,13.00
2018-05-19T11:15:32.164Z,11.70
2018-05-19T11:18:00.388Z,10.90
2018-05-19T11:20:28.721Z,15.17
2018-05-19T11:22:56.961Z,12.83
2018-05-19T11:25:25.328Z,11.07
2018-05-19T11:27:53.628Z,14.00
2018-05-19T11:30:21.917Z,12.53
2018-05-19T11:32:50.164Z,10.40
2018-05-19T11:35:18.430Z,10.17
2018-05-19T11:37:47.463Z,13.70
2018-05-19T11:40:16.704Z,14.53
2018-05-19T11:42:44.960Z,11.60
2018-05-19T11:45:13.336Z,11.40
2018-05-19T11:47:41.583Z,13.90
2018-05-19T11:50:09.860Z,13.23
2018-05-19T11:52:38.969Z,12.60
2018-05-19T11:55:07.289Z,16.53
2018-05-19T11:57:35.653Z,13.50
2018-05-19T12:00:03.893Z,11.87
2018-05-19T12:02:32.171Z,12.23
2018-05-19T12:05:00.421Z,12.90
2018-05-19T12:09:57.952Z,12.53
2018-05-19T12:12:26.406Z,15.40
2018-05-19T12:14:54.518Z,12.00
2018-05-19T12:17:22.894Z,19.13
2018-05-19T12:19:51.165Z,12.63
2018-05-19T12:22:19.453Z,13.50
2018-05-19T12:24:47.709Z,12.50
2018-05-19T12:27:15.988Z,10.77
2018-05-19T12:29:44.244Z,11.80
2018-05-19T12:32:13.264Z,13.70
2018-05-19T12:34:41.556Z,13.77
2018-05-19T12:37:09.833Z,9.30
2018-05-19T12:39:38.129Z,10.53
2018-05-19T12:42:06.409Z,13.57
2018-05-19T12:44:34.661Z,16.07
2018-05-19T12:47:02.980Z,14.40
2018-05-19T12:49:32.968Z,17.23
2018-05-19T12:52:01.231Z,10.87
2018-05-19T12:54:29.476Z,9.70
2018-05-19T12:56:57.839Z,11.83
2018-05-19T12:59:26.109Z,13.23
2018-05-19T13:01:54.403Z,14.10
2018-05-19T13:04:22.661Z,10.10
2018-05-19T13:06:50.931Z,10.03
2018-05-19T13:09:19.226Z,12.60
2018-05-19T13:11:47.506Z,13.63
2018-05-19T13:14:15.778Z,11.07
2018-05-19T13:16:44.030Z,10.40
2018-05-19T13:19:12.309Z,14.30
2018-05-19T13:21:40.568Z,14.93
2018-05-19T13:24:09.608Z,16.00
2018-05-19T13:26:37.865Z,11.70
2018-05-19T13:29:06.179Z,14.10
2018-05-19T13:31:34.424Z,12.77
2018-05-19T13:34:02.682Z,14.43
2018-05-19T13:36:31.722Z,14.83
2018-05-19T13:39:00.042Z,14.70
2018-05-19T13:41:28.326Z,16.73
2018-05-19T13:43:56.672Z,14.07
2018-05-19T13:46:25.018Z,11.90
2018-05-19T13:48:53.808Z,16.27
2018-05-19T13:51:22.060Z,12.60
2018-05-19T13:53:51.128Z,14.23
2018-05-19T13:56:19.374Z,14.60
2018-05-19T13:58:47.682Z,16.23
2018-05-19T14:01:15.940Z,11.03
2018-05-19T14:03:44.233Z,14.20
2018-05-19T14:06:12.520Z,12.20
2018-05-19T14:08:40.823Z,14.80
2018-05-19T14:11:09.061Z,16.20
2018-05-19T14:13:37.313Z,11.83
2018-05-19T14:16:05.624Z,13.63
2018-05-19T14:18:33.911Z,14.53
2018-05-19T14:21:02.216Z,12.10
2018-05-19T14:23:30.489Z,13.40
2018-05-19T14:26:00.310Z,13.33
2018-05-19T14:28:28.570Z,16.30
2018-05-19T14:30:56.875Z,14.13
2018-05-19T14:33:25.155Z,12.60
2018-05-19T14:35:53.412Z,13.37
2018-05-19T14:38:21.661Z,16.90
2018-05-19T14:40:49.932Z,15.13
2018-05-19T14:43:18.177Z,14.33
2018-05-19T14:45:47.218Z,14.47
2018-05-19T14:48:15.504Z,12.43
2018-05-19T14:50:43.821Z,15.37
2018-05-19T14:53:12.870Z,15.77
2018-05-19T14:55:41.127Z,15.80
2018-05-19T14:58:10.196Z,13.30
2018-05-19T15:00:38.443Z,13.27
2018-05-19T15:03:06.701Z,14.40
2018-05-19T15:05:34.964Z,16.17
2018-05-19T15:08:03.308Z,14.60
2018-05-19T15:10:31.654Z,16.33
2018-05-19T15:12:59.908Z,15.53
2018-05-19T15:15:28.210Z,22.27
2018-05-19T15:17:56.498Z,18.43
2018-05-19T15:20:24.775Z,14.00
2018-05-19T15:22:53.030Z,15.83
2018-05-19T15:25:21.332Z,14.80
2018-05-19T15:27:49.717Z,15.83
2018-05-19T15:30:17.964Z,12.90
2018-05-19T15:32:46.250Z,14.23
2018-05-19T15:35:15.282Z,18.47
2018-05-19T15:37:43.552Z,14.47
2018-05-19T15:40:11.840Z,13.80
2018-05-19T15:42:40.131Z,14.90
2018-05-19T15:45:08.430Z,11.67
2018-05-19T15:47:36.810Z,12.50
2018-05-19T15:50:05.756Z,12.90
2018-05-19T15:52:34.100Z,15.97
2018-05-19T15:55:02.404Z,19.60
2018-05-19T15:57:30.745Z,13.07
2018-05-19T15:59:58.993Z,12.17
2018-05-19T16:02:27.248Z,11.37
2018-05-19T16:04:56.309Z,10.20
2018-05-19T16:07:25.674Z,23.40
2018-05-19T16:09:58.298Z,14.53
2018-05-19T16:12:27.647Z,17.53
2018-05-19T16:14:55.990Z,11.27
2018-05-19T16:26:56.409Z,15.10
2018-05-19T16:29:24.648Z,11.70
2018-05-19T16:31:53.116Z,11.53
2018-05-19T16:34:22.253Z,15.30
2018-05-19T16:36:50.627Z,11.20
2018-05-19T16:39:19.081Z,13.13
2018-05-19T16:41:47.434Z,15.13
2018-05-19T16:44:15.874Z,12.93
2018-05-19T16:46:44.305Z,14.40
2018-05-19T16:49:13.402Z,11.50
2018-05-19T16:51:41.642Z,12.40
2018-05-19T16:54:09.968Z,14.03
2018-05-19T16:56:38.967Z,15.90
2018-05-19T16:59:07.222Z,16.43
2018-05-19T17:01:36.230Z,13.93
2018-05-19T17:04:05.249Z,15.63
2018-05-19T17:06:33.481Z,14.37
2018-05-19T17:09:01.762Z,13.40
2018-05-19T17:11:30.771Z,15.70
2018-05-19T17:13:59.787Z,13.50
2018-05-19T17:16:28.021Z,14.53
2018-05-19T17:18:56.288Z,14.67
2018-05-19T17:21:24.519Z,27.20
2018-05-19T17:23:52.779Z,98.40
2018-05-19T17:26:21.079Z,86.67
2018-05-19T17:28:49.346Z,299.33
2018-05-19T17:31:17.600Z,128.50
2018-05-19T17:33:46.774Z,103.33
2018-05-19T17:36:15.203Z,393.83
2018-05-19T17:38:43.688Z,428.50
2018-05-19T17:41:11.998Z,105.20
2018-05-19T17:43:40.288Z,25.43
2018-05-19T17:46:08.509Z,14.07
2018-05-19T17:48:36.768Z,14.00
2018-05-19T17:51:05.779Z,13.13
2018-05-19T17:53:34.023Z,11.83
2018-05-19T17:56:02.283Z,9.90
2018-05-19T17:58:30.535Z,12.20
2018-05-19T18:00:58.786Z,11.40
2018-05-19T18:03:27.034Z,13.63
2018-05-19T18:05:56.055Z,11.40
2018-05-19T18:08:24.286Z,12.37
2018-05-19T18:10:52.550Z,13.53
2018-05-19T18:13:20.878Z,14.70
2018-05-19T18:15:49.113Z,17.93
2018-05-19T18:18:17.323Z,14.20
2018-05-19T18:20:45.582Z,10.13
2018-05-19T18:23:14.588Z,16.57
2018-05-19T18:25:43.608Z,13.53
2018-05-19T18:28:11.912Z,11.23
2018-05-19T18:30:40.931Z,10.60
2018-05-19T18:33:09.161Z,17.23
2018-05-19T18:35:37.519Z,10.57
2018-05-19T18:38:05.710Z,11.10
2018-05-19T18:40:33.959Z,11.77
2018-05-19T18:43:02.959Z,9.80
2018-05-19T18:45:31.305Z,14.50
2018-05-19T18:47:59.517Z,17.30
2018-05-19T18:50:27.758Z,11.33
2018-05-19T18:52:59.856Z,12.57
2018-05-19T18:55:28.340Z,12.87
2018-05-19T18:57:56.573Z,10.10
2018-05-19T19:00:24.831Z,9.77
2018-05-19T19:02:53.062Z,15.07
2018-05-19T19:05:21.320Z,10.90
2018-05-19T19:07:49.541Z,13.63
2018-05-19T19:10:17.817Z,10.23
2018-05-19T19:12:46.050Z,14.63
2018-05-19T19:15:15.059Z,10.57
2018-05-19T19:17:44.075Z,12.67
2018-05-19T19:20:12.311Z,10.60
2018-05-19T19:22:40.568Z,12.57
2018-05-19T19:25:08.801Z,11.60
2018-05-19T19:27:37.050Z,11.07
2018-05-19T19:30:06.054Z,16.90
2018-05-19T19:32:34.354Z,17.37
2018-05-19T19:35:02.538Z,13.83
2018-05-19T19:37:30.849Z,11.73
2018-05-19T19:39:59.061Z,12.50
2018-05-19T19:42:27.333Z,12.53
2018-05-19T19:44:55.678Z,11.47
2018-05-19T19:47:23.927Z,12.97
2018-05-19T19:49:52.334Z,10.60
2018-05-19T19:52:20.561Z,12.33
2018-05-19T19:54:48.791Z,14.20
2018-05-19T19:57:17.047Z,23.10
2018-05-19T19:59:45.298Z,27.57
2018-05-19T20:02:13.554Z,13.90
2018-05-19T20:04:41.788Z,11.70
2018-05-19T20:07:10.055Z,15.43
2018-05-19T20:09:38.302Z,15.50
2018-05-19T20:12:06.558Z,15.80
2018-05-19T20:14:34.798Z,15.50
2018-05-19T20:17:03.071Z,14.57
2018-05-19T20:19:31.315Z,13.30
2018-05-19T20:22:02.591Z,12.80
2018-05-19T20:24:30.844Z,13.83
2018-05-19T20:26:59.084Z,18.27
2018-05-19T20:29:27.330Z,14.33
2018-05-19T20:31:55.583Z,15.00
2018-05-19T20:34:23.841Z,13.13
2018-05-19T20:36:52.091Z,17.40
2018-05-19T20:39:20.346Z,12.53
2018-05-19T20:41:49.359Z,13.87
2018-05-19T20:44:17.635Z,21.20
2018-05-19T20:46:46.624Z,16.90
2018-05-19T20:49:14.878Z,12.73
2018-05-19T20:51:43.232Z,18.50
2018-05-19T20:54:11.480Z,16.17
2018-05-19T20:56:39.802Z,13.80
2018-05-19T20:59:08.036Z,15.97
2018-05-19T21:01:36.310Z,16.30
2018-05-19T21:04:04.553Z,13.90
2018-05-19T21:06:33.563Z,15.47
2018-05-19T21:09:01.818Z,14.93
2018-05-19T21:11:30.057Z,16.70
2018-05-19T21:13:58.318Z,12.20
2018-05-19T21:16:26.575Z,16.57
2018-05-19T21:18:54.902Z,12.40
2018-05-19T21:21:23.083Z,14.73
2018-05-19T21:23:51.333Z,14.43
2018-05-19T21:26:19.571Z,14.03
2018-05-19T21:28:47.830Z,14.23
2018-05-19T21:31:16.842Z,16.20
2018-05-19T21:33:45.112Z,14.10
2018-05-19T21:36:13.363Z,15.43
2018-05-19T21:38:41.625Z,14.20
2018-05-19T21:41:09.882Z,16.00
2018-05-19T21:43:38.122Z,13.73
2018-05-19T21:46:06.389Z,23.27
2018-05-19T21:48:34.638Z,13.73
2018-05-19T21:51:02.964Z,17.13
2018-05-19T21:53:31.191Z,18.63
2018-05-19T21:55:59.420Z,15.17
2018-05-19T21:58:27.650Z,21.53
2018-05-19T22:00:56.684Z,12.87
2018-05-19T22:03:24.927Z,16.00
2018-05-19T22:05:53.191Z,19.80
2018-05-19T22:08:22.204Z,13.80
2018-05-19T22:10:51.283Z,20.20
2018-05-19T22:13:19.499Z,20.13
2018-05-19T22:15:47.774Z,17.30
2018-05-19T22:18:16.106Z,17.40
2018-05-19T22:20:44.334Z,15.67
2018-05-19T22:23:12.573Z,14.50
2018-05-19T22:25:40.831Z,16.80
2018-05-19T22:28:09.072Z,15.33
2018-05-19T22:30:37.322Z,20.90
2018-05-19T22:33:05.712Z,16.87
2018-05-19T22:35:34.207Z,15.00
2018-05-19T22:38:02.702Z,18.90
2018-05-19T22:40:31.876Z,17.43
2018-05-19T22:43:00.223Z,18.10
2018-05-19T22:45:28.516Z,17.60
2018-05-19T22:47:56.774Z,18.23
2018-05-19T22:50:25.814Z,15.90
2018-05-19T22:52:54.051Z,18.87
2018-05-19T22:55:23.078Z,20.00
2018-05-19T22:57:51.309Z,20.07
2018-05-19T23:00:22.135Z,20.00
2018-05-19T23:02:50.121Z,18.90
2018-05-19T23:05:18.376Z,16.30
2018-05-19T23:07:46.618Z,20.40
2018-05-19T23:10:14.875Z,20.27
2018-05-19T23:12:43.122Z,19.03
2018-05-19T23:15:12.144Z,20.07
2018-05-19T23:17:40.386Z,17.63
2018-05-19T23:20:09.410Z,17.00
2018-05-19T23:22:42.307Z,19.87
2018-05-19T23:25:10.571Z,16.33
2018-05-19T23:27:38.872Z,17.43
2018-05-19T23:30:07.123Z,19.57
2018-05-19T23:32:35.437Z,16.97
2018-05-19T23:35:03.703Z,16.90
2018-05-19T23:37:31.929Z,16.17
2018-05-19T23:40:00.968Z,18.93
2018-05-19T23:42:29.216Z,16.43
2018-05-19T23:44:58.285Z,18.73
2018-05-19T23:47:26.494Z,16.23
2018-05-19T23:49:54.755Z,21.40
2018-05-19T23:52:23.761Z,18.53
2018-05-19T23:54:52.016Z,20.50
2018-05-19T23:57:21.031Z,21.27
2018-05-19T23:59:49.288Z,22.70
